CEB227 RPMD-RPVM
Flight info
| Callsign | CEB227 |
|---|---|
| Flight time | 0h 48m |
| Altitude | 28000 |
| Route | JOFER3P JOFER W8 BOHOL BOHOL3P |
| Aircraft | A20N/M-SDE2E3FGHIRWXY/LB1 |
Departure
| Time | 2026-05-07 16:38 |
|---|---|
| Airport | Francisco Bangoy International Airport (RPMD) |
Arrival
| Time | 2026-05-07 17:27 |
|---|---|
| Airport | Mactan Cebu International Airport (RPVM) |
| Time | Latitude | Longitude | Altitude | Speed | Heading |
|---|---|---|---|---|---|
| 2026-05-07 16:10 | 7.13076 | 125.64693 | 112 ft | 0 kts | 319° |
| 2026-05-07 16:27 | 7.13067 | 125.64700 | 112 ft | 2 kts | 310° |
| 2026-05-07 16:28 | 7.13059 | 125.64713 | 112 ft | 2 kts | 290° |
| 2026-05-07 16:28 | 7.13056 | 125.64728 | 112 ft | 2 kts | 274° |
| 2026-05-07 16:28 | 7.13054 | 125.64743 | 112 ft | 2 kts | 295° |
| 2026-05-07 16:28 | 7.13045 | 125.64754 | 112 ft | 2 kts | 322° |
| 2026-05-07 16:29 | 7.13032 | 125.64761 | 112 ft | 2 kts | 349° |
| 2026-05-07 16:29 | 7.13017 | 125.64761 | 112 ft | 2 kts | 17° |
| 2026-05-07 16:29 | 7.13003 | 125.64754 | 112 ft | 1 kts | 44° |
| 2026-05-07 16:29 | 7.12999 | 125.64750 | 112 ft | 1 kts | 53° |
| 2026-05-07 16:30 | 7.12997 | 125.64748 | 112 ft | 0 kts | 50° |
| 2026-05-07 16:33 | 7.13002 | 125.64753 | 112 ft | 2 kts | 50° |
| 2026-05-07 16:33 | 7.13021 | 125.64777 | 112 ft | 5 kts | 60° |
| 2026-05-07 16:34 | 7.13005 | 125.64812 | 112 ft | 6 kts | 134° |
| 2026-05-07 16:34 | 7.12967 | 125.64845 | 112 ft | 7 kts | 140° |
| 2026-05-07 16:34 | 7.12921 | 125.64884 | 112 ft | 9 kts | 140° |
| 2026-05-07 16:34 | 7.12876 | 125.64934 | 112 ft | 9 kts | 100° |
| 2026-05-07 16:35 | 7.12910 | 125.64993 | 112 ft | 10 kts | 49° |
| 2026-05-07 16:35 | 7.12962 | 125.65053 | 112 ft | 11 kts | 49° |
| 2026-05-07 16:35 | 7.13017 | 125.65117 | 112 ft | 12 kts | 49° |
| 2026-05-07 16:35 | 7.13075 | 125.65185 | 112 ft | 13 kts | 50° |
| 2026-05-07 16:36 | 7.13137 | 125.65257 | 112 ft | 13 kts | 49° |
| 2026-05-07 16:36 | 7.13201 | 125.65331 | 112 ft | 14 kts | 49° |
| 2026-05-07 16:36 | 7.13268 | 125.65409 | 112 ft | 14 kts | 50° |
| 2026-05-07 16:36 | 7.13339 | 125.65488 | 112 ft | 15 kts | 39° |
| 2026-05-07 16:37 | 7.13438 | 125.65515 | 112 ft | 14 kts | 31° |
| 2026-05-07 16:37 | 7.13427 | 125.65582 | 112 ft | 9 kts | 185° |
| 2026-05-07 16:37 | 7.13397 | 125.65561 | 112 ft | 0 kts | 230° |
| 2026-05-07 16:37 | 7.13392 | 125.65555 | 112 ft | 0 kts | 230° |
| 2026-05-07 16:38 | 7.13358 | 125.65514 | 112 ft | 34 kts | 229° |
| 2026-05-07 16:38 | 7.12993 | 125.65089 | 113 ft | 120 kts | 229° |
| 2026-05-07 16:38 | 7.12308 | 125.64301 | 316 ft | 165 kts | 229° |
| 2026-05-07 16:38 | 7.11577 | 125.63454 | 1090 ft | 164 kts | 230° |
| 2026-05-07 16:39 | 7.11109 | 125.62447 | 1871 ft | 165 kts | 271° |
| 2026-05-07 16:39 | 7.11550 | 125.61391 | 2373 ft | 175 kts | 315° |
| 2026-05-07 16:39 | 7.12500 | 125.60543 | 2859 ft | 192 kts | 322° |
| 2026-05-07 16:39 | 7.13575 | 125.59648 | 3377 ft | 209 kts | 321° |
| 2026-05-07 16:40 | 7.14727 | 125.58637 | 3812 ft | 233 kts | 320° |
| 2026-05-07 16:40 | 7.15976 | 125.57476 | 4392 ft | 253 kts | 318° |
| 2026-05-07 16:40 | 7.17291 | 125.56210 | 4980 ft | 271 kts | 317° |
| 2026-05-07 16:40 | 7.18673 | 125.54852 | 5734 ft | 282 kts | 317° |
| 2026-05-07 16:41 | 7.20070 | 125.53467 | 6591 ft | 287 kts | 317° |
| 2026-05-07 16:41 | 7.21496 | 125.52046 | 7437 ft | 292 kts | 317° |
| 2026-05-07 16:41 | 7.22936 | 125.50610 | 8242 ft | 297 kts | 317° |
| 2026-05-07 16:41 | 7.24416 | 125.49133 | 9018 ft | 301 kts | 317° |
| 2026-05-07 16:42 | 7.25913 | 125.47636 | 9766 ft | 306 kts | 317° |
| 2026-05-07 16:42 | 7.27423 | 125.46130 | 10464 ft | 312 kts | 318° |
| 2026-05-07 16:42 | 7.28998 | 125.44562 | 10882 ft | 328 kts | 317° |
| 2026-05-07 16:42 | 7.30673 | 125.42895 | 11212 ft | 346 kts | 317° |
| 2026-05-07 16:43 | 7.32410 | 125.41170 | 11684 ft | 357 kts | 319° |
| 2026-05-07 16:43 | 7.34384 | 125.39671 | 12358 ft | 357 kts | 332° |
| 2026-05-07 16:43 | 7.36651 | 125.38638 | 13052 ft | 355 kts | 345° |
| 2026-05-07 16:43 | 7.39029 | 125.37940 | 13708 ft | 357 kts | 347° |
| 2026-05-07 16:44 | 7.41430 | 125.37291 | 14328 ft | 361 kts | 348° |
| 2026-05-07 16:44 | 7.43867 | 125.36637 | 14952 ft | 364 kts | 347° |
| 2026-05-07 16:44 | 7.46343 | 125.35965 | 15552 ft | 367 kts | 347° |
| 2026-05-07 16:44 | 7.48814 | 125.35287 | 16007 ft | 374 kts | 347° |
| 2026-05-07 16:45 | 7.51369 | 125.34578 | 16522 ft | 379 kts | 347° |
| 2026-05-07 16:45 | 7.53923 | 125.33854 | 17058 ft | 382 kts | 347° |
| 2026-05-07 16:45 | 7.56496 | 125.33126 | 17601 ft | 385 kts | 347° |
| 2026-05-07 16:45 | 7.59088 | 125.32395 | 18118 ft | 388 kts | 347° |
| 2026-05-07 16:46 | 7.61702 | 125.31661 | 18628 ft | 391 kts | 347° |
| 2026-05-07 16:46 | 7.64333 | 125.30926 | 19110 ft | 394 kts | 347° |
| 2026-05-07 16:46 | 7.65213 | 125.30681 | 19266 ft | 395 kts | 347° |
| 2026-05-07 16:46 | 7.69669 | 125.29437 | 20045 ft | 401 kts | 347° |
| 2026-05-07 16:47 | 7.72381 | 125.28680 | 20511 ft | 404 kts | 347° |
| 2026-05-07 16:47 | 7.75095 | 125.27923 | 20970 ft | 407 kts | 347° |
| 2026-05-07 16:47 | 7.77840 | 125.27157 | 21417 ft | 410 kts | 347° |
| 2026-05-07 16:47 | 7.80594 | 125.26388 | 21850 ft | 414 kts | 347° |
| 2026-05-07 16:48 | 7.83402 | 125.25605 | 22297 ft | 417 kts | 347° |
| 2026-05-07 16:48 | 7.85259 | 125.25088 | 22680 ft | 416 kts | 347° |
| 2026-05-07 16:48 | 7.88048 | 125.24311 | 23308 ft | 414 kts | 347° |
| 2026-05-07 16:48 | 7.89894 | 125.23795 | 23723 ft | 413 kts | 346° |
| 2026-05-07 16:49 | 7.92648 | 125.23025 | 24327 ft | 411 kts | 347° |
| 2026-05-07 16:49 | 7.97185 | 125.21503 | 25292 ft | 411 kts | 340° |
| 2026-05-07 16:49 | 7.99797 | 125.20332 | 25874 ft | 411 kts | 335° |
| 2026-05-07 16:49 | 8.02366 | 125.19013 | 26458 ft | 410 kts | 334° |
| 2026-05-07 16:50 | 8.04892 | 125.17691 | 26955 ft | 410 kts | 334° |
| 2026-05-07 16:50 | 8.07418 | 125.16367 | 27397 ft | 412 kts | 334° |
| 2026-05-07 16:50 | 8.09965 | 125.15035 | 27821 ft | 414 kts | 334° |
| 2026-05-07 16:50 | 8.12549 | 125.13689 | 27997 ft | 415 kts | 334° |
| 2026-05-07 16:51 | 8.15115 | 125.12357 | 28005 ft | 415 kts | 334° |
| 2026-05-07 16:51 | 8.20269 | 125.09676 | 28003 ft | 415 kts | 333° |
| 2026-05-07 16:52 | 8.25426 | 125.06989 | 27997 ft | 416 kts | 334° |
| 2026-05-07 16:52 | 8.30583 | 125.04298 | 28003 ft | 417 kts | 334° |
| 2026-05-07 16:53 | 8.35763 | 125.01597 | 28005 ft | 417 kts | 334° |
| 2026-05-07 16:53 | 8.40922 | 124.98906 | 28002 ft | 416 kts | 334° |
| 2026-05-07 16:54 | 8.46073 | 124.96217 | 27999 ft | 415 kts | 334° |
| 2026-05-07 16:54 | 8.48631 | 124.94881 | 27987 ft | 415 kts | 334° |
| 2026-05-07 16:54 | 8.51219 | 124.93529 | 27969 ft | 415 kts | 334° |
| 2026-05-07 16:54 | 8.53776 | 124.92193 | 27969 ft | 415 kts | 334° |
| 2026-05-07 16:55 | 8.56345 | 124.90850 | 27974 ft | 416 kts | 334° |
| 2026-05-07 16:55 | 8.58912 | 124.89507 | 27965 ft | 416 kts | 334° |
| 2026-05-07 16:55 | 8.61481 | 124.88165 | 27968 ft | 416 kts | 334° |
| 2026-05-07 16:55 | 8.64058 | 124.86816 | 27963 ft | 416 kts | 334° |
| 2026-05-07 16:56 | 8.66642 | 124.85465 | 27963 ft | 416 kts | 334° |
| 2026-05-07 16:56 | 8.69210 | 124.84122 | 27957 ft | 416 kts | 334° |
| 2026-05-07 16:56 | 8.74393 | 124.81409 | 27944 ft | 416 kts | 334° |
| 2026-05-07 16:57 | 8.76962 | 124.80064 | 27934 ft | 415 kts | 334° |
| 2026-05-07 16:57 | 8.79524 | 124.78722 | 27919 ft | 415 kts | 334° |
| 2026-05-07 16:57 | 8.82087 | 124.77381 | 27897 ft | 415 kts | 334° |
| 2026-05-07 16:57 | 8.84672 | 124.76026 | 27872 ft | 415 kts | 334° |
| 2026-05-07 16:58 | 8.87226 | 124.74690 | 27865 ft | 414 kts | 334° |
| 2026-05-07 16:58 | 8.89776 | 124.73354 | 27855 ft | 415 kts | 334° |
| 2026-05-07 16:58 | 8.92352 | 124.72006 | 27846 ft | 415 kts | 335° |
| 2026-05-07 16:58 | 8.94913 | 124.70665 | 27850 ft | 415 kts | 335° |
| 2026-05-07 16:59 | 8.97491 | 124.69315 | 27844 ft | 414 kts | 335° |
| 2026-05-07 16:59 | 9.00015 | 124.67989 | 27822 ft | 394 kts | 335° |
| 2026-05-07 16:59 | 9.02376 | 124.66751 | 27829 ft | 375 kts | 335° |
| 2026-05-07 16:59 | 9.04655 | 124.65554 | 27824 ft | 359 kts | 335° |
| 2026-05-07 17:00 | 9.06841 | 124.64410 | 27828 ft | 351 kts | 335° |
| 2026-05-07 17:00 | 9.09013 | 124.63271 | 27831 ft | 350 kts | 335° |
| 2026-05-07 17:00 | 9.11175 | 124.62139 | 27832 ft | 349 kts | 335° |
| 2026-05-07 17:00 | 9.13319 | 124.61024 | 27834 ft | 348 kts | 335° |
| 2026-05-07 17:01 | 9.15487 | 124.59892 | 27836 ft | 348 kts | 335° |
| 2026-05-07 17:01 | 9.17626 | 124.58773 | 27836 ft | 348 kts | 335° |
| 2026-05-07 17:01 | 9.19802 | 124.57634 | 27837 ft | 347 kts | 335° |
| 2026-05-07 17:01 | 9.21943 | 124.56512 | 27838 ft | 347 kts | 335° |
| 2026-05-07 17:02 | 9.24079 | 124.55392 | 27837 ft | 347 kts | 335° |
| 2026-05-07 17:02 | 9.26229 | 124.54263 | 27838 ft | 348 kts | 335° |
| 2026-05-07 17:02 | 9.28389 | 124.53128 | 27838 ft | 347 kts | 335° |
| 2026-05-07 17:02 | 9.30552 | 124.51992 | 27838 ft | 347 kts | 335° |
| 2026-05-07 17:03 | 9.32694 | 124.50867 | 27839 ft | 347 kts | 335° |
| 2026-05-07 17:03 | 9.34841 | 124.49738 | 27837 ft | 347 kts | 335° |
| 2026-05-07 17:03 | 9.36976 | 124.48615 | 27838 ft | 347 kts | 335° |
| 2026-05-07 17:03 | 9.39121 | 124.47488 | 27839 ft | 346 kts | 335° |
| 2026-05-07 17:04 | 9.41258 | 124.46364 | 27839 ft | 345 kts | 335° |
| 2026-05-07 17:04 | 9.43403 | 124.45235 | 27840 ft | 346 kts | 335° |
| 2026-05-07 17:04 | 9.45533 | 124.44114 | 27840 ft | 346 kts | 335° |
| 2026-05-07 17:04 | 9.47679 | 124.42984 | 27842 ft | 346 kts | 335° |
| 2026-05-07 17:05 | 9.49817 | 124.41859 | 27842 ft | 347 kts | 335° |
| 2026-05-07 17:05 | 9.51951 | 124.40737 | 27844 ft | 347 kts | 335° |
| 2026-05-07 17:05 | 9.54096 | 124.39608 | 27846 ft | 346 kts | 335° |
| 2026-05-07 17:05 | 9.56212 | 124.38388 | 27848 ft | 347 kts | 329° |
| 2026-05-07 17:06 | 9.58162 | 124.36982 | 27852 ft | 348 kts | 323° |
| 2026-05-07 17:06 | 9.60005 | 124.35349 | 27858 ft | 348 kts | 319° |
| 2026-05-07 17:06 | 9.61749 | 124.33680 | 27863 ft | 348 kts | 318° |
| 2026-05-07 17:06 | 9.63514 | 124.31969 | 27867 ft | 348 kts | 318° |
| 2026-05-07 17:07 | 9.65254 | 124.30288 | 27872 ft | 348 kts | 318° |
| 2026-05-07 17:07 | 9.67017 | 124.28594 | 27880 ft | 348 kts | 319° |
| 2026-05-07 17:07 | 9.68790 | 124.26900 | 27887 ft | 347 kts | 318° |
| 2026-05-07 17:07 | 9.70553 | 124.25215 | 27892 ft | 347 kts | 317° |
| 2026-05-07 17:08 | 9.72352 | 124.23603 | 27879 ft | 344 kts | 330° |
| 2026-05-07 17:08 | 9.74514 | 124.22665 | 27878 ft | 338 kts | 351° |
| 2026-05-07 17:08 | 9.76850 | 124.22604 | 27879 ft | 334 kts | 13° |
| 2026-05-07 17:08 | 9.79022 | 124.23426 | 27888 ft | 332 kts | 32° |
| 2026-05-07 17:09 | 9.80947 | 124.24709 | 27894 ft | 335 kts | 37° |
| 2026-05-07 17:09 | 9.82845 | 124.26120 | 27894 ft | 336 kts | 38° |
| 2026-05-07 17:09 | 9.84705 | 124.27537 | 27819 ft | 333 kts | 38° |
| 2026-05-07 17:09 | 9.86542 | 124.28947 | 27255 ft | 338 kts | 38° |
| 2026-05-07 17:10 | 9.88453 | 124.30416 | 26268 ft | 350 kts | 38° |
| 2026-05-07 17:10 | 9.90391 | 124.31906 | 25000 ft | 363 kts | 38° |
| 2026-05-07 17:10 | 9.92446 | 124.33481 | 23539 ft | 376 kts | 38° |
| 2026-05-07 17:10 | 9.94530 | 124.35062 | 22193 ft | 383 kts | 38° |
| 2026-05-07 17:11 | 9.96649 | 124.36657 | 20845 ft | 388 kts | 38° |
| 2026-05-07 17:11 | 9.98960 | 124.38065 | 19366 ft | 396 kts | 24° |
| 2026-05-07 17:11 | 10.01639 | 124.38760 | 17898 ft | 402 kts | 7° |
| 2026-05-07 17:11 | 10.04373 | 124.38573 | 16946 ft | 394 kts | 349° |
| 2026-05-07 17:12 | 10.06863 | 124.37528 | 16313 ft | 381 kts | 329° |
| 2026-05-07 17:12 | 10.08790 | 124.35751 | 15790 ft | 367 kts | 312° |
| 2026-05-07 17:12 | 10.10281 | 124.33768 | 15382 ft | 349 kts | 308° |
| 2026-05-07 17:12 | 10.11664 | 124.31799 | 15018 ft | 331 kts | 308° |
| 2026-05-07 17:13 | 10.12947 | 124.29944 | 14716 ft | 314 kts | 308° |
| 2026-05-07 17:13 | 10.14168 | 124.28164 | 14487 ft | 300 kts | 308° |
| 2026-05-07 17:13 | 10.15329 | 124.26463 | 14286 ft | 289 kts | 308° |
| 2026-05-07 17:13 | 10.16446 | 124.24820 | 14061 ft | 280 kts | 308° |
| 2026-05-07 17:14 | 10.17544 | 124.23205 | 13709 ft | 277 kts | 308° |
| 2026-05-07 17:14 | 10.18634 | 124.21605 | 13317 ft | 276 kts | 308° |
| 2026-05-07 17:14 | 10.19728 | 124.20000 | 12925 ft | 274 kts | 308° |
| 2026-05-07 17:14 | 10.20801 | 124.18422 | 12556 ft | 273 kts | 308° |
| 2026-05-07 17:15 | 10.21877 | 124.16840 | 12175 ft | 272 kts | 308° |
| 2026-05-07 17:15 | 10.22959 | 124.15256 | 11783 ft | 270 kts | 308° |
| 2026-05-07 17:15 | 10.24026 | 124.13695 | 11399 ft | 269 kts | 308° |
| 2026-05-07 17:15 | 10.25086 | 124.12132 | 11026 ft | 268 kts | 303° |
| 2026-05-07 17:16 | 10.25724 | 124.10362 | 10629 ft | 271 kts | 275° |
| 2026-05-07 17:16 | 10.25477 | 124.08509 | 10265 ft | 267 kts | 244° |
| 2026-05-07 17:16 | 10.24455 | 124.06979 | 9905 ft | 261 kts | 223° |
| 2026-05-07 17:16 | 10.23151 | 124.05684 | 9496 ft | 260 kts | 219° |
| 2026-05-07 17:17 | 10.21816 | 124.04458 | 9129 ft | 260 kts | 218° |
| 2026-05-07 17:17 | 10.20462 | 124.03226 | 8756 ft | 259 kts | 218° |
| 2026-05-07 17:17 | 10.19122 | 124.02013 | 8385 ft | 258 kts | 218° |
| 2026-05-07 17:17 | 10.17797 | 124.00814 | 8036 ft | 257 kts | 218° |
| 2026-05-07 17:18 | 10.16451 | 123.99600 | 7685 ft | 255 kts | 218° |
| 2026-05-07 17:18 | 10.15128 | 123.98407 | 7325 ft | 255 kts | 218° |
| 2026-05-07 17:18 | 10.13803 | 123.97216 | 6970 ft | 253 kts | 218° |
| 2026-05-07 17:18 | 10.12486 | 123.96036 | 6620 ft | 252 kts | 218° |
| 2026-05-07 17:19 | 10.11179 | 123.94864 | 6251 ft | 251 kts | 218° |
| 2026-05-07 17:19 | 10.09867 | 123.93688 | 5898 ft | 251 kts | 218° |
| 2026-05-07 17:19 | 10.08562 | 123.92511 | 5553 ft | 250 kts | 218° |
| 2026-05-07 17:19 | 10.07359 | 123.91243 | 5189 ft | 253 kts | 238° |
| 2026-05-07 17:20 | 10.06922 | 123.89535 | 4840 ft | 252 kts | 274° |
| 2026-05-07 17:20 | 10.07342 | 123.87859 | 4515 ft | 246 kts | 302° |
| 2026-05-07 17:20 | 10.08396 | 123.86544 | 4137 ft | 237 kts | 328° |
| 2026-05-07 17:20 | 10.09824 | 123.85801 | 3783 ft | 227 kts | 348° |
| 2026-05-07 17:21 | 10.11337 | 123.85309 | 3392 ft | 231 kts | 342° |
| 2026-05-07 17:21 | 10.12697 | 123.84418 | 3090 ft | 234 kts | 325° |
| 2026-05-07 17:21 | 10.13984 | 123.83472 | 2926 ft | 216 kts | 345° |
| 2026-05-07 17:21 | 10.15367 | 123.83273 | 2843 ft | 191 kts | 19° |
| 2026-05-07 17:22 | 10.16511 | 123.83784 | 2870 ft | 169 kts | 39° |
| 2026-05-07 17:22 | 10.17372 | 123.84492 | 2773 ft | 153 kts | 47° |
| 2026-05-07 17:22 | 10.18109 | 123.85206 | 2710 ft | 137 kts | 50° |
| 2026-05-07 17:22 | 10.18773 | 123.85879 | 2686 ft | 135 kts | 50° |
| 2026-05-07 17:23 | 10.19437 | 123.86555 | 2607 ft | 135 kts | 50° |
| 2026-05-07 17:23 | 10.20104 | 123.87233 | 2550 ft | 136 kts | 50° |
| 2026-05-07 17:23 | 10.20772 | 123.87911 | 2461 ft | 135 kts | 50° |
| 2026-05-07 17:23 | 10.21438 | 123.88583 | 2272 ft | 133 kts | 50° |
| 2026-05-07 17:24 | 10.22085 | 123.89234 | 2095 ft | 132 kts | 50° |
| 2026-05-07 17:24 | 10.22741 | 123.89894 | 1923 ft | 132 kts | 50° |
| 2026-05-07 17:24 | 10.23391 | 123.90550 | 1746 ft | 131 kts | 49° |
| 2026-05-07 17:24 | 10.24043 | 123.91205 | 1571 ft | 131 kts | 49° |
| 2026-05-07 17:25 | 10.24695 | 123.91859 | 1396 ft | 131 kts | 49° |
| 2026-05-07 17:25 | 10.25338 | 123.92506 | 1224 ft | 131 kts | 47° |
| 2026-05-07 17:25 | 10.25989 | 123.93160 | 1048 ft | 130 kts | 47° |
| 2026-05-07 17:25 | 10.26635 | 123.93809 | 871 ft | 130 kts | 47° |
| 2026-05-07 17:26 | 10.27282 | 123.94458 | 699 ft | 130 kts | 46° |
| 2026-05-07 17:26 | 10.27918 | 123.95097 | 530 ft | 129 kts | 46° |
| 2026-05-07 17:26 | 10.28555 | 123.95735 | 346 ft | 129 kts | 45° |
| 2026-05-07 17:26 | 10.29198 | 123.96384 | 178 ft | 128 kts | 45° |
| 2026-05-07 17:27 | 10.29826 | 123.97015 | 49 ft | 127 kts | 44° |
| 2026-05-07 17:27 | 10.30396 | 123.97581 | 37 ft | 91 kts | 45° |
| 2026-05-07 17:27 | 10.30719 | 123.97907 | 37 ft | 40 kts | 44° |
| 2026-05-07 17:27 | 10.30870 | 123.98057 | 37 ft | 28 kts | 44° |
| 2026-05-07 17:28 | 10.31004 | 123.98192 | 37 ft | 26 kts | 44° |
| 2026-05-07 17:28 | 10.31142 | 123.98297 | 37 ft | 19 kts | 21° |
| 2026-05-07 17:28 | 10.31269 | 123.98338 | 37 ft | 15 kts | 16° |
| 2026-05-07 17:28 | 10.31367 | 123.98344 | 37 ft | 12 kts | 330° |
| 2026-05-07 17:29 | 10.31420 | 123.98296 | 37 ft | 10 kts | 317° |
| 2026-05-07 17:29 | 10.31474 | 123.98241 | 37 ft | 11 kts | 314° |
| 2026-05-07 17:29 | 10.31531 | 123.98182 | 37 ft | 9 kts | 314° |
| 2026-05-07 17:29 | 10.31568 | 123.98127 | 38 ft | 9 kts | 274° |
| 2026-05-07 17:30 | 10.31539 | 123.98078 | 38 ft | 7 kts | 225° |
| 2026-05-07 17:30 | 10.31503 | 123.98040 | 38 ft | 5 kts | 239° |
| 2026-05-07 17:30 | 10.31518 | 123.98009 | 38 ft | 6 kts | 315° |
| 2026-05-07 17:30 | 10.31544 | 123.97983 | 38 ft | 2 kts | 314° |
| 2026-05-07 17:31 | 10.31549 | 123.97977 | 38 ft | 0 kts | 314° |